Weather at Sule Skerry Heliport

Public forecast

Using degrees Celsius for public forecast. Weather courtesy of forecast.io.

Closest aviation weather report (METAR) to Sule Skerry Heliport

Closest report is Kirkwall Airport, 47.0 nm (87.1 km) E.

2024/07/17 18:20 (retrieved 22 minutes ago)

EGPA 171820Z 14006KT 9999 FEW025 14/11 Q1017

Closest aviation forecast (TAF) to Sule Skerry Heliport

Closest forecast is RAF Lossiemouth, 89.4 nm (165.5 km) SSE.

2024/07/17 18:21 (retrieved 21 minutes ago)

TAF TAF EGQS 171649Z 1718/1812 10006KT 9999 FEW045 PROB30 TEMPO 1806/1809 7000 SHRA